createdAt,value
2018-05-07T00:01:05.415Z,58.34
2018-05-07T00:03:31.293Z,58.30
2018-05-07T00:05:57.381Z,58.16
2018-05-07T00:08:23.298Z,58.35
2018-05-07T00:10:49.292Z,58.61
2018-05-07T00:13:15.244Z,58.68
2018-05-07T00:15:41.246Z,58.52
2018-05-07T00:18:07.152Z,58.64
2018-05-07T00:20:33.170Z,58.69
2018-05-07T00:22:59.121Z,58.49
2018-05-07T00:25:25.069Z,58.83
2018-05-07T00:27:51.025Z,58.66
2018-05-07T00:30:16.974Z,58.73
2018-05-07T00:32:42.952Z,58.76
2018-05-07T00:35:08.900Z,58.72
2018-05-07T00:37:34.922Z,58.58
2018-05-07T00:40:00.846Z,58.51
2018-05-07T00:42:26.790Z,58.67
2018-05-07T00:44:52.806Z,58.37
2018-05-07T00:47:18.760Z,58.60
2018-05-07T00:49:44.725Z,58.32
2018-05-07T00:52:10.749Z,58.71
2018-05-07T00:54:36.740Z,58.43
2018-05-07T00:57:02.698Z,58.58
2018-05-07T00:59:28.663Z,58.55
2018-05-07T01:01:54.613Z,58.25
2018-05-07T01:04:20.575Z,58.53
2018-05-07T01:06:46.636Z,58.52
2018-05-07T01:09:12.580Z,58.64
2018-05-07T01:11:38.531Z,58.59
2018-05-07T01:14:04.484Z,58.58
2018-05-07T01:16:30.470Z,58.51
2018-05-07T01:18:56.452Z,58.41
2018-05-07T01:21:22.548Z,58.34
2018-05-07T01:23:48.492Z,58.52
2018-05-07T01:26:14.440Z,58.53
2018-05-07T01:28:40.417Z,58.49
2018-05-07T01:31:06.390Z,58.34
2018-05-07T01:33:32.335Z,57.92
2018-05-07T01:35:58.286Z,57.93
2018-05-07T01:38:24.253Z,58.37
2018-05-07T01:40:50.204Z,58.16
2018-05-07T01:43:16.174Z,58.49
2018-05-07T01:45:42.136Z,58.31
2018-05-07T01:48:08.111Z,58.51
2018-05-07T01:50:34.079Z,58.44
2018-05-07T01:53:03.532Z,58.70
2018-05-07T01:55:29.503Z,58.41
2018-05-07T01:57:55.462Z,58.52
2018-05-07T02:00:21.444Z,58.69
2018-05-07T02:02:47.467Z,58.72
2018-05-07T02:05:13.391Z,58.53
2018-05-07T02:07:39.379Z,58.52
2018-05-07T02:10:05.341Z,58.56
2018-05-07T02:12:31.318Z,58.21
2018-05-07T02:14:57.304Z,58.33
2018-05-07T02:17:23.243Z,58.36
2018-05-07T02:19:49.200Z,58.16
2018-05-07T02:22:15.170Z,58.18
2018-05-07T02:24:41.119Z,58.31
2018-05-07T02:27:07.069Z,58.21
2018-05-07T02:29:33.052Z,58.37
2018-05-07T02:31:59.036Z,58.27
2018-05-07T02:34:24.997Z,58.41
2018-05-07T02:36:50.933Z,58.43
2018-05-07T02:39:16.908Z,58.65
2018-05-07T02:41:42.856Z,58.33
2018-05-07T02:44:08.823Z,58.39
2018-05-07T02:46:34.778Z,58.28
2018-05-07T02:49:00.750Z,58.34
2018-05-07T02:51:26.696Z,58.12
2018-05-07T02:53:52.647Z,58.36
2018-05-07T02:56:18.625Z,58.39
2018-05-07T02:58:44.572Z,58.52
2018-05-07T03:01:10.530Z,58.30
2018-05-07T03:03:36.491Z,58.01
2018-05-07T03:06:02.453Z,57.79
2018-05-07T03:08:28.413Z,58.18
2018-05-07T03:10:54.374Z,58.24
2018-05-07T03:13:20.357Z,58.05
2018-05-07T03:15:46.330Z,58.04
2018-05-07T03:18:12.285Z,58.14
2018-05-07T03:20:38.242Z,58.34
2018-05-07T03:23:04.185Z,58.28
2018-05-07T03:25:30.142Z,58.32
2018-05-07T03:27:56.101Z,58.57
2018-05-07T03:30:22.032Z,58.87
2018-05-07T03:32:47.998Z,58.50
2018-05-07T03:35:13.956Z,58.68
2018-05-07T03:37:40.017Z,58.69
2018-05-07T03:40:05.971Z,58.44
2018-05-07T03:42:31.927Z,58.32
2018-05-07T03:44:57.886Z,58.39
2018-05-07T03:47:23.839Z,58.56
2018-05-07T03:49:49.793Z,58.31
2018-05-07T03:52:15.756Z,58.33
2018-05-07T03:54:41.705Z,58.23
2018-05-07T03:57:07.660Z,58.17
2018-05-07T03:59:33.633Z,58.35
2018-05-07T04:01:59.613Z,58.20
2018-05-07T04:04:25.558Z,58.34
2018-05-07T04:06:51.532Z,58.39
2018-05-07T04:09:17.501Z,58.61
2018-05-07T04:11:43.495Z,58.53
2018-05-07T04:14:09.438Z,58.49
2018-05-07T04:16:35.404Z,58.42
2018-05-07T04:19:01.371Z,58.37
2018-05-07T04:21:27.328Z,58.41
2018-05-07T04:23:53.302Z,58.46
2018-05-07T04:26:19.248Z,58.37
2018-05-07T04:28:45.223Z,58.46
2018-05-07T04:31:11.180Z,58.35
2018-05-07T04:33:37.190Z,58.44
2018-05-07T04:36:03.111Z,58.35
2018-05-07T04:38:29.065Z,58.19
2018-05-07T04:40:55.016Z,58.47
2018-05-07T04:43:20.994Z,57.96
2018-05-07T04:45:46.944Z,58.43
2018-05-07T04:48:12.916Z,58.40
2018-05-07T04:50:38.908Z,58.52
2018-05-07T04:53:04.876Z,58.30
2018-05-07T04:55:30.842Z,58.46
2018-05-07T04:57:56.813Z,58.13
2018-05-07T05:00:22.774Z,58.30
2018-05-07T05:02:48.722Z,58.67
2018-05-07T05:05:14.678Z,58.65
2018-05-07T05:07:40.674Z,58.42
2018-05-07T05:10:06.632Z,58.39
2018-05-07T05:12:32.613Z,58.36
2018-05-07T05:14:58.572Z,58.34
2018-05-07T05:17:24.578Z,58.37
2018-05-07T05:19:50.564Z,58.15
2018-05-07T05:22:16.536Z,58.27
2018-05-07T05:24:42.573Z,58.33
2018-05-07T05:27:08.555Z,58.20
2018-05-07T05:29:34.539Z,58.05
2018-05-07T05:32:00.526Z,58.26
2018-05-07T05:34:26.497Z,58.17
2018-05-07T05:36:52.485Z,58.19
2018-05-07T05:39:18.487Z,58.15
2018-05-07T05:41:44.428Z,58.34
2018-05-07T05:44:10.390Z,57.70
2018-05-07T05:46:39.798Z,57.68
2018-05-07T05:49:05.747Z,58.01
2018-05-07T05:51:31.788Z,58.12
2018-05-07T05:53:57.746Z,58.24
2018-05-07T05:56:23.901Z,57.56
2018-05-07T05:58:49.777Z,58.29
2018-05-07T06:01:15.782Z,57.75
2018-05-07T06:03:41.814Z,58.09
2018-05-07T06:06:07.826Z,58.07
2018-05-07T06:08:33.788Z,58.17
2018-05-07T06:10:59.745Z,57.97
2018-05-07T06:13:25.709Z,57.77
2018-05-07T06:15:51.666Z,57.46
2018-05-07T06:18:17.620Z,57.66
2018-05-07T06:20:43.578Z,57.13
2018-05-07T06:23:09.553Z,56.68
2018-05-07T06:25:35.502Z,56.58
2018-05-07T06:28:01.446Z,57.17
2018-05-07T06:30:27.425Z,57.61
2018-05-07T06:32:53.438Z,57.87
2018-05-07T06:35:19.409Z,57.38
2018-05-07T06:37:45.387Z,57.79
2018-05-07T06:40:11.336Z,57.75
2018-05-07T06:42:37.285Z,58.00
2018-05-07T06:45:03.240Z,57.67
2018-05-07T06:47:29.197Z,57.86
2018-05-07T06:49:55.162Z,57.88
2018-05-07T06:52:21.135Z,57.93
2018-05-07T06:54:47.076Z,57.91
2018-05-07T06:57:15.187Z,57.68
2018-05-07T06:59:42.023Z,57.61
2018-05-07T07:02:08.049Z,58.07
2018-05-07T07:04:33.968Z,58.21
2018-05-07T07:06:59.984Z,58.19
2018-05-07T07:09:26.041Z,58.12
2018-05-07T07:11:51.996Z,58.45
2018-05-07T07:14:17.990Z,58.78
2018-05-07T07:16:43.961Z,58.54
2018-05-07T07:19:09.944Z,58.45
2018-05-07T07:21:35.915Z,58.36
2018-05-07T07:24:01.897Z,58.28
2018-05-07T07:26:27.917Z,57.94
2018-05-07T07:28:53.955Z,58.72
2018-05-07T07:31:19.981Z,58.71
2018-05-07T07:33:46.033Z,58.44
2018-05-07T07:36:11.969Z,59.07
2018-05-07T07:38:37.935Z,57.78
2018-05-07T07:41:03.901Z,57.68
2018-05-07T07:43:29.841Z,58.20
2018-05-07T07:45:55.825Z,57.93
2018-05-07T07:48:21.795Z,57.88
2018-05-07T07:50:47.759Z,58.27
2018-05-07T07:53:13.716Z,58.01
2018-05-07T07:55:39.688Z,57.40
2018-05-07T07:58:05.647Z,57.58
2018-05-07T08:00:31.611Z,57.94
2018-05-07T08:02:57.571Z,57.79
2018-05-07T08:05:23.525Z,57.61
2018-05-07T08:07:49.501Z,58.37
2018-05-07T08:10:15.452Z,57.89
2018-05-07T08:12:41.420Z,58.01
2018-05-07T08:15:07.368Z,57.80
2018-05-07T08:17:33.333Z,57.81
2018-05-07T08:19:59.308Z,58.17
2018-05-07T08:22:25.265Z,57.70
2018-05-07T08:24:51.306Z,58.09
2018-05-07T08:27:17.265Z,57.65
2018-05-07T08:29:43.217Z,57.18
2018-05-07T08:32:09.179Z,57.76
2018-05-07T08:34:35.132Z,57.31
2018-05-07T08:37:01.095Z,57.05
2018-05-07T08:39:27.068Z,58.23
2018-05-07T08:41:53.017Z,58.12
2018-05-07T08:44:18.964Z,57.82
2018-05-07T08:46:44.937Z,57.27
2018-05-07T08:49:10.891Z,57.47
2018-05-07T08:51:36.853Z,57.87
2018-05-07T08:54:02.801Z,58.22
2018-05-07T08:56:28.741Z,58.23
2018-05-07T08:58:54.693Z,57.69
2018-05-07T09:01:20.663Z,57.33
2018-05-07T09:03:46.645Z,57.59
2018-05-07T09:06:12.606Z,57.79
2018-05-07T09:08:38.636Z,57.75
2018-05-07T09:11:04.603Z,57.19
2018-05-07T09:13:30.581Z,58.16
2018-05-07T09:15:56.538Z,58.21
2018-05-07T09:18:22.476Z,57.75
2018-05-07T09:20:48.427Z,57.95
2018-05-07T09:23:14.386Z,58.07
2018-05-07T09:25:40.378Z,57.78
2018-05-07T09:28:06.342Z,58.34
2018-05-07T09:30:32.316Z,57.41
2018-05-07T09:32:59.293Z,57.66
2018-05-07T09:35:25.364Z,57.76
2018-05-07T09:37:51.365Z,57.92
2018-05-07T09:40:17.387Z,57.79
2018-05-07T09:42:43.379Z,57.92
2018-05-07T09:45:09.338Z,57.95
2018-05-07T09:47:35.317Z,58.20
2018-05-07T09:50:01.327Z,58.19
2018-05-07T09:52:27.324Z,57.70
2018-05-07T09:54:53.274Z,57.83
2018-05-07T09:57:19.230Z,58.11
2018-05-07T09:59:45.201Z,58.04
2018-05-07T10:02:11.167Z,58.14
2018-05-07T10:04:37.148Z,58.11
2018-05-07T10:07:03.093Z,58.17
2018-05-07T10:09:29.145Z,57.89
2018-05-07T10:11:55.096Z,57.51
2018-05-07T10:14:21.050Z,57.44
2018-05-07T10:16:47.013Z,57.93
2018-05-07T10:19:14.070Z,57.47
2018-05-07T10:21:40.029Z,57.96
2018-05-07T10:24:06.075Z,57.57
2018-05-07T10:26:31.961Z,57.86
2018-05-07T10:28:57.928Z,57.70
2018-05-07T10:31:23.924Z,57.24
2018-05-07T10:33:49.873Z,57.31
2018-05-07T10:36:15.874Z,57.68
2018-05-07T10:38:41.826Z,58.02
2018-05-07T10:41:07.780Z,57.42
2018-05-07T10:43:33.747Z,57.46
2018-05-07T10:45:59.699Z,57.92
2018-05-07T10:48:28.785Z,57.55
2018-05-07T10:50:54.738Z,57.68
2018-05-07T10:53:20.725Z,57.49
2018-05-07T10:55:46.692Z,57.58
2018-05-07T10:58:12.645Z,57.31
2018-05-07T11:00:38.632Z,58.00
2018-05-07T11:03:04.702Z,57.95
2018-05-07T11:05:30.711Z,57.70
2018-05-07T11:07:56.666Z,57.52
2018-05-07T11:10:22.652Z,58.34
2018-05-07T11:12:48.627Z,58.21
2018-05-07T11:15:14.592Z,57.89
2018-05-07T11:17:40.564Z,58.19
2018-05-07T11:20:06.522Z,58.15
2018-05-07T11:22:32.503Z,57.93
2018-05-07T11:24:58.467Z,58.18
2018-05-07T11:27:24.441Z,58.08
2018-05-07T11:29:50.427Z,58.32
2018-05-07T11:32:16.413Z,58.44
2018-05-07T11:34:42.564Z,58.65
2018-05-07T11:37:08.623Z,58.09
2018-05-07T11:39:34.588Z,58.53
2018-05-07T11:42:00.566Z,58.16
2018-05-07T11:44:26.525Z,57.69
2018-05-07T11:46:52.485Z,57.79
2018-05-07T11:49:18.466Z,57.81
2018-05-07T11:51:44.448Z,57.86
2018-05-07T11:54:10.407Z,57.94
2018-05-07T11:56:36.375Z,57.49
2018-05-07T11:59:02.337Z,57.69
2018-05-07T12:01:28.325Z,58.09
2018-05-07T12:03:54.294Z,58.07
2018-05-07T12:06:20.253Z,58.34
2018-05-07T12:08:46.200Z,57.50
2018-05-07T12:11:12.165Z,57.37
2018-05-07T12:13:38.133Z,57.06
2018-05-07T12:16:04.115Z,57.04
2018-05-07T12:18:30.142Z,57.33
2018-05-07T12:20:56.108Z,58.36
2018-05-07T12:23:22.114Z,57.22
2018-05-07T12:25:48.058Z,57.95
2018-05-07T12:28:14.021Z,58.28
2018-05-07T12:30:40.032Z,57.50
2018-05-07T12:33:06.016Z,57.58
2018-05-07T12:35:31.989Z,58.42
2018-05-07T12:37:57.959Z,58.29
2018-05-07T12:40:23.935Z,57.99
2018-05-07T12:42:49.905Z,58.00
2018-05-07T12:45:15.867Z,57.00
2018-05-07T12:47:41.856Z,58.06
2018-05-07T12:50:07.796Z,58.21
2018-05-07T12:52:33.768Z,57.62
2018-05-07T12:54:59.764Z,57.59
2018-05-07T12:57:25.803Z,57.49
2018-05-07T12:59:51.772Z,57.45
2018-05-07T13:02:17.745Z,56.41
2018-05-07T13:04:43.708Z,57.62
2018-05-07T13:07:09.650Z,57.95
2018-05-07T13:09:35.632Z,58.36
2018-05-07T13:12:01.597Z,57.88
2018-05-07T13:14:27.539Z,57.47
2018-05-07T13:16:53.510Z,56.46
2018-05-07T13:19:19.484Z,57.25
2018-05-07T13:21:45.469Z,56.66
2018-05-07T13:24:11.456Z,57.27
2018-05-07T13:26:37.430Z,56.42
2018-05-07T13:29:03.438Z,55.34
2018-05-07T13:31:29.393Z,55.22
2018-05-07T13:33:55.369Z,55.14
2018-05-07T13:36:21.325Z,54.90
2018-05-07T13:38:47.280Z,54.95
2018-05-07T13:41:13.253Z,56.22
2018-05-07T13:43:39.207Z,55.13
2018-05-07T13:46:05.172Z,56.80
2018-05-07T13:48:31.152Z,57.61
2018-05-07T13:50:57.106Z,56.75
2018-05-07T13:53:23.074Z,57.57
2018-05-07T13:55:49.030Z,57.07
2018-05-07T13:58:14.977Z,57.13
2018-05-07T14:00:40.983Z,56.71
2018-05-07T14:03:06.961Z,56.56
2018-05-07T14:05:32.913Z,57.13
2018-05-07T14:07:58.862Z,57.39
2018-05-07T14:10:28.202Z,57.10
2018-05-07T14:12:54.222Z,57.31
2018-05-07T14:15:20.172Z,56.76
2018-05-07T14:17:46.124Z,57.57
2018-05-07T14:20:12.116Z,57.39
2018-05-07T14:22:38.076Z,57.76
2018-05-07T14:25:04.049Z,57.96
2018-05-07T14:27:30.005Z,57.63
2018-05-07T14:29:55.977Z,58.42
2018-05-07T14:32:21.935Z,57.28
2018-05-07T14:34:47.972Z,57.97
2018-05-07T14:37:13.931Z,58.35
2018-05-07T14:39:39.884Z,57.31
2018-05-07T14:42:05.826Z,58.42
2018-05-07T14:44:31.775Z,58.38
2018-05-07T14:46:57.752Z,58.29
2018-05-07T14:49:23.707Z,57.44
2018-05-07T14:51:49.704Z,57.98
2018-05-07T14:54:15.651Z,58.11
2018-05-07T14:56:41.612Z,57.82
2018-05-07T14:59:07.591Z,58.14
2018-05-07T15:01:33.530Z,58.67
2018-05-07T15:03:59.523Z,57.97
2018-05-07T15:06:25.496Z,58.17
2018-05-07T15:08:51.490Z,57.72
2018-05-07T15:11:17.444Z,58.43
2018-05-07T15:13:43.412Z,58.11
2018-05-07T15:16:09.351Z,57.96
2018-05-07T15:18:35.314Z,58.03
2018-05-07T15:21:01.284Z,57.84
2018-05-07T15:23:27.294Z,58.35
2018-05-07T15:25:53.242Z,58.06
2018-05-07T15:28:19.217Z,58.32
2018-05-07T15:30:45.175Z,58.29
2018-05-07T15:33:11.121Z,57.98
2018-05-07T15:35:37.104Z,58.16
2018-05-07T15:38:03.049Z,58.29
2018-05-07T15:40:29.015Z,57.92
2018-05-07T15:42:55.054Z,58.00
2018-05-07T15:45:20.996Z,57.65
2018-05-07T15:47:46.937Z,56.52
2018-05-07T15:50:12.911Z,56.90
2018-05-07T15:52:38.858Z,57.88
2018-05-07T15:55:04.845Z,57.36
2018-05-07T15:57:30.802Z,56.78
2018-05-07T15:59:56.788Z,57.97
2018-05-07T16:02:22.754Z,57.64
2018-05-07T16:04:48.699Z,58.02
2018-05-07T16:07:14.658Z,57.97
2018-05-07T16:09:40.613Z,57.77
2018-05-07T16:12:06.583Z,58.03
2018-05-07T16:14:32.543Z,58.37
2018-05-07T16:16:59.599Z,57.78
2018-05-07T16:19:25.568Z,57.91
2018-05-07T16:21:51.614Z,58.12
2018-05-07T16:24:17.474Z,57.95
2018-05-07T16:26:43.431Z,58.13
2018-05-07T16:29:09.453Z,58.04
2018-05-07T16:31:35.420Z,58.62
2018-05-07T16:34:01.416Z,58.58
2018-05-07T16:36:27.383Z,58.46
2018-05-07T16:38:53.349Z,58.55
2018-05-07T16:41:19.309Z,58.76
2018-05-07T16:43:45.281Z,58.77
2018-05-07T16:46:11.237Z,58.59
2018-05-07T16:48:37.358Z,58.37
2018-05-07T16:51:03.295Z,58.03
2018-05-07T16:53:29.324Z,57.73
2018-05-07T16:55:55.462Z,57.91
2018-05-07T16:58:21.354Z,57.53
2018-05-07T17:00:47.322Z,57.80
2018-05-07T17:03:13.312Z,57.66
2018-05-07T17:05:39.270Z,58.60
2018-05-07T17:08:05.288Z,58.30
2018-05-07T17:10:31.238Z,58.09
2018-05-07T17:12:57.204Z,57.62
2018-05-07T17:15:23.165Z,57.75
2018-05-07T17:17:49.128Z,57.90
2018-05-07T17:20:15.119Z,57.85
2018-05-07T17:22:41.105Z,58.12
2018-05-07T17:25:07.065Z,58.01
2018-05-07T17:27:33.025Z,57.96
2018-05-07T17:29:59.077Z,57.76
2018-05-07T17:32:24.957Z,57.95
2018-05-07T17:34:50.907Z,57.93
2018-05-07T17:37:16.925Z,58.60
2018-05-07T17:39:42.865Z,58.92
2018-05-07T17:42:08.819Z,58.76
2018-05-07T17:44:34.826Z,58.78
2018-05-07T17:47:00.800Z,58.58
2018-05-07T17:49:26.786Z,58.65
2018-05-07T17:51:52.734Z,58.69
2018-05-07T17:54:18.705Z,58.80
2018-05-07T17:56:44.694Z,58.95
2018-05-07T17:59:10.642Z,58.78
2018-05-07T18:01:36.620Z,58.61
2018-05-07T18:04:02.595Z,58.93
2018-05-07T18:06:28.590Z,58.76
2018-05-07T18:08:54.588Z,58.74
2018-05-07T18:11:20.551Z,58.77
2018-05-07T18:13:46.549Z,58.74
2018-05-07T18:16:12.506Z,58.61
2018-05-07T18:18:38.506Z,58.46
2018-05-07T18:21:04.479Z,58.52
2018-05-07T18:23:30.454Z,58.40
2018-05-07T18:25:59.549Z,58.37
2018-05-07T18:28:25.577Z,58.60
2018-05-07T18:30:51.524Z,58.39
2018-05-07T18:33:18.567Z,58.92
2018-05-07T18:35:48.881Z,58.71
2018-05-07T18:38:14.848Z,58.58
2018-05-07T18:40:40.836Z,58.70
2018-05-07T18:43:06.806Z,58.85
2018-05-07T18:45:32.795Z,58.71
2018-05-07T18:47:58.771Z,58.39
2018-05-07T18:50:24.731Z,58.07
2018-05-07T18:52:50.727Z,57.98
2018-05-07T18:55:16.709Z,57.66
2018-05-07T18:57:42.676Z,57.36
2018-05-07T19:00:08.634Z,57.82
2018-05-07T19:02:34.590Z,58.08
2018-05-07T19:05:00.540Z,58.18
2018-05-07T19:07:26.611Z,57.61
2018-05-07T19:09:52.575Z,57.77
2018-05-07T19:12:18.545Z,57.44
2018-05-07T19:14:44.533Z,57.85
2018-05-07T19:17:10.510Z,57.02
2018-05-07T19:19:36.481Z,56.53
2018-05-07T19:22:02.453Z,57.01
2018-05-07T19:24:28.452Z,58.18
2018-05-07T19:26:54.415Z,57.14
2018-05-07T19:29:20.385Z,58.17
2018-05-07T19:31:46.355Z,57.85
2018-05-07T19:34:12.312Z,56.53
2018-05-07T19:36:38.348Z,54.96
2018-05-07T19:39:05.350Z,55.97
2018-05-07T19:41:31.343Z,54.77
2018-05-07T19:43:57.288Z,54.83
2018-05-07T19:46:23.263Z,54.16
2018-05-07T19:48:49.224Z,55.25
2018-05-07T19:51:15.201Z,55.32
2018-05-07T19:53:41.158Z,53.61
2018-05-07T19:56:07.114Z,54.46
2018-05-07T19:58:33.122Z,54.75
2018-05-07T20:00:59.072Z,54.81
2018-05-07T20:03:25.033Z,56.06
2018-05-07T20:05:51.079Z,54.46
2018-05-07T20:08:16.972Z,53.50
2018-05-07T20:10:42.939Z,55.80
2018-05-07T20:13:08.915Z,54.60
2018-05-07T20:15:36.905Z,56.22
2018-05-07T20:18:02.871Z,57.33
2018-05-07T20:20:28.829Z,56.92
2018-05-07T20:22:54.784Z,55.99
2018-05-07T20:25:20.741Z,55.94
2018-05-07T20:27:46.820Z,56.22
2018-05-07T20:30:12.839Z,56.46
2018-05-07T20:32:39.861Z,56.46
2018-05-07T20:35:05.815Z,56.29
2018-05-07T20:37:31.776Z,56.00
2018-05-07T20:39:57.729Z,56.32
2018-05-07T20:42:23.761Z,56.16
2018-05-07T20:44:49.733Z,56.70
2018-05-07T20:47:15.690Z,56.32
2018-05-07T20:49:41.674Z,57.02
2018-05-07T20:52:07.598Z,56.88
2018-05-07T20:54:33.555Z,56.71
2018-05-07T20:56:59.565Z,56.93
2018-05-07T20:59:25.618Z,56.81
2018-05-07T21:01:51.499Z,56.60
2018-05-07T21:04:17.450Z,56.85
2018-05-07T21:06:43.397Z,56.99
2018-05-07T21:09:09.366Z,57.05
2018-05-07T21:11:35.371Z,56.94
2018-05-07T21:14:01.426Z,56.84
2018-05-07T21:16:27.380Z,56.72
2018-05-07T21:18:53.344Z,57.46
2018-05-07T21:21:19.377Z,57.82
2018-05-07T21:23:47.280Z,57.23
2018-05-07T21:26:13.240Z,57.32
2018-05-07T21:28:39.215Z,57.42
2018-05-07T21:31:05.172Z,57.42
2018-05-07T21:33:31.364Z,57.47
2018-05-07T21:35:57.363Z,57.84
2018-05-07T21:38:23.316Z,58.04
2018-05-07T21:40:49.278Z,57.48
2018-05-07T21:43:15.245Z,57.77
2018-05-07T21:45:41.210Z,57.73
2018-05-07T21:48:07.180Z,57.84
2018-05-07T21:50:33.157Z,57.55
2018-05-07T21:52:59.163Z,57.70
2018-05-07T21:55:25.102Z,57.58
2018-05-07T21:57:51.093Z,57.96
2018-05-07T22:00:17.048Z,58.01
2018-05-07T22:02:43.074Z,57.59
2018-05-07T22:05:09.002Z,57.86
2018-05-07T22:07:34.975Z,57.64
2018-05-07T22:10:00.925Z,57.74
2018-05-07T22:12:26.933Z,57.96
2018-05-07T22:14:52.884Z,57.82
2018-05-07T22:17:18.840Z,57.89
2018-05-07T22:19:44.820Z,58.09
2018-05-07T22:22:10.802Z,58.12
2018-05-07T22:24:36.756Z,58.47
2018-05-07T22:27:02.696Z,58.66
2018-05-07T22:29:28.663Z,58.43
2018-05-07T22:31:54.612Z,58.48
2018-05-07T22:34:20.576Z,58.77
2018-05-07T22:36:46.547Z,58.64
2018-05-07T22:39:12.548Z,58.72
2018-05-07T22:41:38.474Z,58.63
2018-05-07T22:44:04.440Z,58.70
2018-05-07T22:46:30.411Z,58.68
2018-05-07T22:48:56.438Z,58.83
2018-05-07T22:51:22.336Z,58.78
2018-05-07T22:53:48.320Z,58.69
2018-05-07T22:56:14.280Z,58.77
2018-05-07T22:58:40.297Z,58.71
2018-05-07T23:01:06.240Z,58.93
2018-05-07T23:03:32.192Z,58.87
2018-05-07T23:05:58.148Z,58.76
2018-05-07T23:08:24.107Z,58.80
2018-05-07T23:10:50.082Z,58.81
2018-05-07T23:13:16.049Z,58.87
2018-05-07T23:15:41.984Z,58.69
2018-05-07T23:18:07.948Z,58.49
2018-05-07T23:20:33.916Z,58.69
2018-05-07T23:22:59.867Z,58.62
2018-05-07T23:25:25.899Z,58.85
2018-05-07T23:27:51.852Z,58.92
2018-05-07T23:30:17.813Z,58.98
2018-05-07T23:32:43.790Z,58.89
2018-05-07T23:35:09.745Z,58.82
2018-05-07T23:37:35.709Z,58.87
2018-05-07T23:40:01.703Z,58.87
2018-05-07T23:42:27.641Z,58.95
2018-05-07T23:44:53.628Z,58.90
2018-05-07T23:47:19.574Z,59.01
2018-05-07T23:49:45.536Z,58.87
2018-05-07T23:52:11.502Z,58.92
2018-05-07T23:54:37.457Z,58.84
2018-05-07T23:57:03.428Z,58.73
2018-05-07T23:59:29.400Z,58.72
